Historyczne dane pomiarowe

Dodano dane terminowe – wersja testowa.

Dane z okresu 1951-2019

Wersja bazy: 1.34 [2019-03-16, lista zmian], aktualizacja planowana na 2019-04-15

Dane meteo z obszaru Polski uzyskane na podstawie danych udostępnionych przez Instytut Meteorologii i Gospodarki Wodnej – Państwowy Instytut Badawczy.

 

Wybierz Datę:    

       

TemperaturaWilgotnośćZachmurzenieWiatrCiśnienieWidzialnośćZjawiska
 Data    tng td wb rh cc ccl cl cm ch dir g1 g2 mslp ppp      
1999-08-05 00:00:00 6.4--- 3.4 5.081wxwx1wx--- 802.6 0.0---wx
1999-08-05 01:00:00 6.4--- 3.4 5.081wxwx2wx--- 802.3----wx
1999-08-05 02:00:00 6.5--- 3.4 5.181wxwx2wx--- 802.2----wx
1999-08-05 03:00:00 6.6--- 3.6 5.181wxwx3wx--- 802.3----wx
1999-08-05 04:00:00 6.9--- -1.2 3.456wxwx3wx--- 802.4----wx
1999-08-05 05:00:00 7.6--- 0.4 4.461wxwxwx3wx--- 802.4----wx
1999-08-05 06:00:00 8.3--- 1.1 5.060wxwxwx2wx--- 802.6 0.0---wx
1999-08-05 07:00:00 8.7--- 4.5 6.675wxwxwxwx1wx--- 802.8----wx
1999-08-05 08:00:00 9.1--- 6.4 7.683wxwxwxwx1wx--- 802.9----wx
1999-08-05 09:00:00 9.2--- 4.8 7.074wxwxwx3wx--- 803.2----wx
1999-08-05 10:00:00 11.3--- 7.0 9.074wxwxwxwx2wx--- 803.3----wx
1999-08-05 11:00:00 11.8--- 8.0 9.777wxwxwx1wx--- 803.5----wx
1999-08-05 12:00:00 12.5--- 8.1 10.174wxwxwx1wx--- 803.4 0.0---wx
1999-08-05 13:00:00 11.9--- 7.1 9.472wxwxwxwx1wx--- 803.5----wx
1999-08-05 14:00:00 14.4--- 8.2 11.067wxwxwxwx1wx--- 803.5----wx
1999-08-05 15:00:00 12.5--- 7.4 9.771wxwxwxwx1wx--- 803.5----wx
1999-08-05 16:00:00 11.7--- 7.4 9.474wxwxwx1wx--- 803.4----wx
1999-08-05 17:00:00 11.0--- 5.9 8.371wxwxwx1wx--- 803.3----wx
1999-08-05 18:00:00 10.2--- 5.6 7.974wxwxwxwxwx1wx--- 803.1 0.0---wx
1999-08-05 19:00:00 9.4--- 5.5 7.477wxwxwxwxwx2wx--- 803.0----wx
1999-08-05 20:00:00 9.2--- 6.4 7.882wxwxwxwx2wx--- 803.2----wx
1999-08-05 21:00:00 8.6--- 6.7 7.687wxwxwx2wx--- 803.2----wx
1999-08-05 22:00:00 8.6--- 6.2 7.485wxwxwxwx3wx--- 803.2----wx
1999-08-05 23:00:00 8.5--- 6.8 7.689wxwxwxwx5wx--- 803.0----wx

 

Źródłem pochodzenia danych jest Instytut Meteorologii i Gospodarki Wodnej – Państwowy Instytut Badawczy. Dane Instytutu Meteorologii i Gospodarki Wodnej – Państwowego Instytutu Badawczego zostały przetworzone.

Dane źródłowe można odnaleźć na stronie https://dane.imgw.pl